Time;durP1;ratioP1;P1;durP2;ratioP2;P2;SDS_P1;SDS_P2;PMS_P1;PMS_P2;Temp;Humidity;BMP_temperature;BMP_pressure;BME280_temperature;BME280_humidity;BME280_pressure;Samples;Min_cycle;Max_cycle;Signal;HPM_P1;HPM_P2
2023/11/06 02:08:46;;;;;;;1999.90;999.90;;;;;;;;;;4931457;29;20230;-67
2023/11/06 02:11:31;;;;;;;1999.90;999.90;;;;;;;;;;4938626;29;20273;-69
2023/11/06 02:14:16;;;;;;;1999.90;999.90;;;;;;;;;;4942403;29;20221;-68
2023/11/06 02:17:00;;;;;;;1999.90;999.90;;;;;;;;;;4928315;29;20685;-68
2023/11/06 02:19:46;;;;;;;1999.90;999.90;;;;;;;;;;4918768;29;20752;-69
2023/11/06 02:22:32;;;;;;;1999.90;999.90;;;;;;;;;;4919689;29;20217;-69
2023/11/06 02:25:19;;;;;;;1999.90;999.90;;;;;;;;;;4923032;29;20612;-68
2023/11/06 02:28:04;;;;;;;1999.90;999.90;;;;;;;;;;4918843;29;20242;-69
2023/11/06 02:30:52;;;;;;;1999.90;999.90;;;;;;;;;;4918569;29;20238;-69
2023/11/06 02:33:38;;;;;;;1999.90;999.90;;;;;;;;;;4918682;29;20605;-69
2023/11/06 02:36:23;;;;;;;1999.90;999.90;;;;;;;;;;4918544;29;20614;-69
2023/11/06 02:39:09;;;;;;;1999.90;999.90;;;;;;;;;;4924154;29;20217;-69
2023/11/06 02:41:56;;;;;;;1999.90;999.90;;;;;;;;;;4911014;29;20216;-69
2023/11/06 02:44:41;;;;;;;1999.90;999.90;;;;;;;;;;4926439;29;20236;-69
2023/11/06 02:47:26;;;;;;;1999.90;999.90;;;;;;;;;;4918107;29;20241;-68
2023/11/06 02:50:13;;;;;;;1999.90;999.90;;;;;;;;;;4918211;29;20226;-68
2023/11/06 02:52:59;;;;;;;1999.90;999.90;;;;;;;;;;4926279;29;20217;-68
2023/11/06 02:55:44;;;;;;;1999.90;999.90;;;;;;;;;;4918003;29;20274;-68
2023/11/06 02:58:30;;;;;;;1999.90;999.90;;;;;;;;;;4917927;29;20301;-69
2023/11/06 03:01:15;;;;;;;1999.90;999.90;;;;;;;;;;4918050;29;20217;-69
2023/11/06 03:04:00;;;;;;;1999.90;999.90;;;;;;;;;;4926037;29;20302;-68
2023/11/06 03:06:45;;;;;;;1999.90;999.90;;;;;;;;;;4932235;29;20236;-68
2023/11/06 03:09:30;;;;;;;1999.90;999.90;;;;;;;;;;4943239;29;20269;-69
2023/11/06 03:12:15;;;;;;;1999.90;999.90;;;;;;;;;;4935657;29;20284;-68
2023/11/06 03:15:01;;;;;;;1999.90;999.90;;;;;;;;;;4936483;29;20706;-68
2023/11/06 03:17:47;;;;;;;1999.90;999.90;;;;;;;;;;4944351;29;20233;-69
2023/11/06 03:20:32;;;;;;;1999.90;999.90;;;;;;;;;;4936626;29;20221;-70
2023/11/06 03:23:16;;;;;;;1999.90;999.90;;;;;;;;;;4942967;28;20240;-70
2023/11/06 03:26:01;;;;;;;1999.90;999.90;;;;;;;;;;4929635;29;20307;-70
2023/11/06 03:28:46;;;;;;;1999.90;999.90;;;;;;;;;;4936759;29;20330;-70
2023/11/06 03:31:33;;;;;;;1999.90;999.90;;;;;;;;;;4943733;29;20261;-70
2023/11/06 03:34:18;;;;;;;1999.90;999.90;;;;;;;;;;4935926;29;20213;-71
2023/11/06 03:37:03;;;;;;;1999.90;999.90;;;;;;;;;;4937011;29;20224;-69
2023/11/06 03:39:48;;;;;;;1999.90;999.90;;;;;;;;;;4939247;28;20307;-69
2023/11/06 03:42:33;;;;;;;1999.90;999.90;;;;;;;;;;4947187;29;20308;-69
2023/11/06 03:45:18;;;;;;;1999.90;999.90;;;;;;;;;;4936393;29;20216;-69
2023/11/06 03:48:05;;;;;;;1999.90;999.90;;;;;;;;;;4928739;29;20229;-69
2023/11/06 03:50:50;;;;;;;1999.90;999.90;;;;;;;;;;4936150;29;20213;-70
2023/11/06 03:53:35;;;;;;;1999.90;999.90;;;;;;;;;;4936127;29;20222;-70
2023/11/06 03:56:20;;;;;;;1999.90;999.90;;;;;;;;;;4936087;29;20252;-70
2023/11/06 03:59:05;;;;;;;1999.90;999.90;;;;;;;;;;4929203;29;20216;-70
2023/11/06 04:01:50;;;;;;;1999.90;999.90;;;;;;;;;;4935631;29;20752;-70
2023/11/06 04:04:36;;;;;;;1999.90;999.90;;;;;;;;;;4935916;29;20218;-70
2023/11/06 04:07:21;;;;;;;1999.90;999.90;;;;;;;;;;4935635;29;20233;-69
2023/11/06 04:10:06;;;;;;;1999.90;999.90;;;;;;;;;;4939929;29;20217;-70
2023/11/06 04:12:51;;;;;;;1999.90;999.90;;;;;;;;;;4947069;29;20264;-69
2023/11/06 04:15:36;;;;;;;1999.90;999.90;;;;;;;;;;4954136;29;20415;-69
2023/11/06 04:18:21;;;;;;;1999.90;999.90;;;;;;;;;;4955287;28;20571;-68
2023/11/06 04:21:08;;;;;;;1999.90;999.90;;;;;;;;;;4954944;29;20305;-69
2023/11/06 04:23:53;;;;;;;1999.90;999.90;;;;;;;;;;4935936;29;20269;-69
2023/11/06 04:26:38;;;;;;;1999.90;999.90;;;;;;;;;;4935826;29;20229;-68
2023/11/06 04:29:23;;;;;;;1999.90;999.90;;;;;;;;;;4935934;29;20214;-70
2023/11/06 04:32:07;;;;;;;1999.90;999.90;;;;;;;;;;4935512;29;20209;-69
2023/11/06 04:34:52;;;;;;;1999.90;999.90;;;;;;;;;;4936179;29;20337;-68
2023/11/06 04:37:39;;;;;;;1999.90;999.90;;;;;;;;;;4935983;29;20269;-68
2023/11/06 04:40:28;;;;;;;1999.90;999.90;;;;;;;;;;4935890;29;20257;-69
2023/11/06 04:43:13;;;;;;;1999.90;999.90;;;;;;;;;;4935997;29;20210;-69
2023/11/06 04:45:58;;;;;;;1999.90;999.90;;;;;;;;;;4936339;29;20209;-69
2023/11/06 04:48:44;;;;;;;1999.90;999.90;;;;;;;;;;4936150;29;20574;-69
2023/11/06 04:51:29;;;;;;;1999.90;999.90;;;;;;;;;;4935996;29;20701;-69
2023/11/06 04:54:15;;;;;;;1999.90;999.90;;;;;;;;;;4935371;29;20349;-69
2023/11/06 04:57:00;;;;;;;1999.90;999.90;;;;;;;;;;4935532;29;20314;-69
2023/11/06 04:59:45;;;;;;;1999.90;999.90;;;;;;;;;;4946734;29;20299;-70
2023/11/06 05:02:30;;;;;;;1999.90;999.90;;;;;;;;;;4935336;29;20216;-69
2023/11/06 05:05:15;;;;;;;1999.90;999.90;;;;;;;;;;4948738;29;20317;-67
2023/11/06 05:08:00;;;;;;;1999.90;999.90;;;;;;;;;;4954044;28;20363;-70
2023/11/06 05:10:46;;;;;;;1999.90;999.90;;;;;;;;;;4954257;29;20213;-69
2023/11/06 05:13:32;;;;;;;1999.90;999.90;;;;;;;;;;4943016;28;20415;-69
2023/11/06 05:16:17;;;;;;;1999.90;999.90;;;;;;;;;;4939513;28;20707;-69
2023/11/06 05:19:02;;;;;;;1999.90;999.90;;;;;;;;;;4953916;29;20196;-69
2023/11/06 05:21:47;;;;;;;1999.90;999.90;;;;;;;;;;4953851;28;20257;-69
2023/11/06 05:24:32;;;;;;;1999.90;999.90;;;;;;;;;;4953585;29;20255;-69
2023/11/06 05:27:18;;;;;;;1999.90;999.90;;;;;;;;;;4949560;28;20619;-69
2023/11/06 05:30:04;;;;;;;1999.90;999.90;;;;;;;;;;4943851;29;20712;-69
2023/11/06 05:32:49;;;;;;;1999.90;999.90;;;;;;;;;;4943020;29;20684;-69
2023/11/06 05:35:34;;;;;;;1999.90;999.90;;;;;;;;;;4943033;28;20208;-69
2023/11/06 05:38:19;;;;;;;1999.90;999.90;;;;;;;;;;4935458;29;20436;-69
2023/11/06 05:41:05;;;;;;;1999.90;999.90;;;;;;;;;;4945609;29;20212;-69
2023/11/06 05:43:51;;;;;;;1999.90;999.90;;;;;;;;;;4944251;29;20220;-69
2023/11/06 05:46:36;;;;;;;1999.90;999.90;;;;;;;;;;4946085;28;20328;-69
2023/11/06 05:49:21;;;;;;;1999.90;999.90;;;;;;;;;;4946074;28;20255;-69
2023/11/06 05:52:06;;;;;;;1999.90;999.90;;;;;;;;;;4933513;29;20232;-69
2023/11/06 05:54:52;;;;;;;1999.90;999.90;;;;;;;;;;4947750;28;20220;-69
2023/11/06 05:57:37;;;;;;;1999.90;999.90;;;;;;;;;;4937968;28;20946;-69
2023/11/06 06:00:23;;;;;;;1999.90;999.90;;;;;;;;;;4933994;29;20209;-69
2023/11/06 06:03:08;;;;;;;1999.90;999.90;;;;;;;;;;4933988;29;20610;-69
2023/11/06 06:05:53;;;;;;;1999.90;999.90;;;;;;;;;;4939963;29;20318;-69
2023/11/06 06:08:38;;;;;;;1999.90;999.90;;;;;;;;;;4934028;29;20229;-69
2023/11/06 06:11:24;;;;;;;1999.90;999.90;;;;;;;;;;4935885;29;20217;-69
2023/11/06 06:14:09;;;;;;;1999.90;999.90;;;;;;;;;;4934184;29;20737;-69
2023/11/06 06:16:56;;;;;;;1999.90;999.90;;;;;;;;;;4934037;29;20235;-69
2023/11/06 06:19:41;;;;;;;1999.90;999.90;;;;;;;;;;4933806;29;20221;-69
2023/11/06 06:22:26;;;;;;;1999.90;999.90;;;;;;;;;;4933113;29;20213;-69
2023/11/06 06:25:11;;;;;;;1999.90;999.90;;;;;;;;;;4942072;29;20269;-69
2023/11/06 06:27:55;;;;;;;1999.90;999.90;;;;;;;;;;4933844;29;20741;-69
2023/11/06 06:30:41;;;;;;;1999.90;999.90;;;;;;;;;;4940919;29;20766;-69
2023/11/06 06:33:27;;;;;;;1999.90;999.90;;;;;;;;;;4934118;29;20716;-69
2023/11/06 06:36:12;;;;;;;1999.90;999.90;;;;;;;;;;4940715;29;20283;-69
2023/11/06 06:38:58;;;;;;;1999.90;999.90;;;;;;;;;;4947433;29;20208;-69
2023/11/06 06:41:43;;;;;;;1999.90;999.90;;;;;;;;;;4937189;29;20209;-69
2023/11/06 06:44:28;;;;;;;1999.90;999.90;;;;;;;;;;4939570;29;20697;-69
2023/11/06 06:47:13;;;;;;;1999.90;999.90;;;;;;;;;;4937261;29;20736;-69
2023/11/06 06:49:59;;;;;;;1999.90;999.90;;;;;;;;;;4937130;29;20250;-69
2023/11/06 06:52:44;;;;;;;1999.90;999.90;;;;;;;;;;4937420;29;20304;-69
2023/11/06 06:55:29;;;;;;;1999.90;999.90;;;;;;;;;;4931189;29;20205;-69
2023/11/06 06:58:14;;;;;;;1999.90;999.90;;;;;;;;;;4937093;29;20705;-69
2023/11/06 07:00:59;;;;;;;1999.90;999.90;;;;;;;;;;4937015;29;20598;-69
2023/11/06 07:03:45;;;;;;;1999.90;999.90;;;;;;;;;;4937192;29;20232;-69
2023/11/06 07:06:31;;;;;;;1999.90;999.90;;;;;;;;;;4930929;29;20236;-69
2023/11/06 07:09:16;;;;;;;1999.90;999.90;;;;;;;;;;4936734;29;20232;-70
2023/11/06 07:12:02;;;;;;;1999.90;999.90;;;;;;;;;;4936632;29;20217;-69
2023/11/06 07:14:47;;;;;;;1999.90;999.90;;;;;;;;;;4945016;29;20337;-70
2023/11/06 07:17:32;;;;;;;1999.90;999.90;;;;;;;;;;4931067;29;20362;-70
2023/11/06 07:20:17;;;;;;;1999.90;999.90;;;;;;;;;;4928942;29;20302;-69
2023/11/06 07:23:04;;;;;;;1999.90;999.90;;;;;;;;;;4936787;29;20269;-70
2023/11/06 07:25:49;;;;;;;1999.90;999.90;;;;;;;;;;4944899;29;20205;-68
2023/11/06 07:28:34;;;;;;;1999.90;999.90;;;;;;;;;;4936546;29;20713;-69
2023/11/06 07:31:21;;;;;;;1999.90;999.90;;;;;;;;;;4940009;28;20231;-69
2023/11/06 07:34:06;;;;;;;1999.90;999.90;;;;;;;;;;4946109;28;20224;-68
2023/11/06 07:36:51;;;;;;;1999.90;999.90;;;;;;;;;;4936539;29;20233;-70
2023/11/06 07:39:38;;;;;;;1999.90;999.90;;;;;;;;;;4944553;29;20213;-69
2023/11/06 07:42:23;;;;;;;1999.90;999.90;;;;;;;;;;4936529;29;20220;-69
2023/11/06 07:45:08;;;;;;;1999.90;999.90;;;;;;;;;;4936164;29;20293;-69
2023/11/06 07:47:55;;;;;;;1999.90;999.90;;;;;;;;;;4932260;29;20225;-70
2023/11/06 07:50:40;;;;;;;1999.90;999.90;;;;;;;;;;4941483;29;20216;-69
2023/11/06 07:53:25;;;;;;;1999.90;999.90;;;;;;;;;;4936304;29;20232;-70
2023/11/06 07:56:13;;;;;;;1999.90;999.90;;;;;;;;;;4935996;29;20353;-69
2023/11/06 07:59:02;;;;;;;1999.90;999.90;;;;;;;;;;4934927;29;20991;-69
2023/11/06 08:01:47;;;;;;;1999.90;999.90;;;;;;;;;;4935310;29;20354;-69
2023/11/06 08:04:32;;;;;;;1999.90;999.90;;;;;;;;;;4935862;29;20248;-69
2023/11/06 08:07:17;;;;;;;1999.90;999.90;;;;;;;;;;4935803;29;20252;-69
2023/11/06 08:10:03;;;;;;;1999.90;999.90;;;;;;;;;;4935703;29;20209;-69
2023/11/06 08:12:49;;;;;;;1999.90;999.90;;;;;;;;;;4935970;29;20216;-68
2023/11/06 08:15:34;;;;;;;1999.90;999.90;;;;;;;;;;4935051;29;20217;-69
2023/11/06 08:18:19;;;;;;;1999.90;999.90;;;;;;;;;;4937237;29;20675;-70
2023/11/06 08:21:04;;;;;;;1999.90;999.90;;;;;;;;;;4941421;29;20344;-70
2023/11/06 08:23:49;;;;;;;1999.90;999.90;;;;;;;;;;4935516;29;20342;-70
2023/11/06 08:26:34;;;;;;;1999.90;999.90;;;;;;;;;;4934337;29;20726;-69
2023/11/06 08:29:21;;;;;;;1999.90;999.90;;;;;;;;;;4934729;29;20233;-69
2023/11/06 08:32:06;;;;;;;1999.90;999.90;;;;;;;;;;4934405;29;20225;-70
2023/11/06 08:34:51;;;;;;;1999.90;999.90;;;;;;;;;;4934592;29;20216;-70
2023/11/06 08:37:36;;;;;;;1999.90;999.90;;;;;;;;;;4936471;29;20618;-69
2023/11/06 08:40:21;;;;;;;1999.90;999.90;;;;;;;;;;4943960;29;20221;-70
2023/11/06 08:43:06;;;;;;;1999.90;999.90;;;;;;;;;;4933225;29;20595;-69
2023/11/06 08:45:52;;;;;;;1999.90;999.90;;;;;;;;;;4935321;29;20926;-68
2023/11/06 08:48:37;;;;;;;1999.90;999.90;;;;;;;;;;4933923;29;20616;-69
2023/11/06 08:51:22;;;;;;;1999.90;999.90;;;;;;;;;;4935021;29;20225;-69
2023/11/06 08:54:07;;;;;;;1999.90;999.90;;;;;;;;;;4935016;29;20836;-70
2023/11/06 08:56:52;;;;;;;1999.90;999.90;;;;;;;;;;4941058;28;20733;-69
2023/11/06 08:59:37;;;;;;;1999.90;999.90;;;;;;;;;;4928283;29;20209;-68
2023/11/06 09:02:23;;;;;;;1999.90;999.90;;;;;;;;;;4944869;28;20221;-68
2023/11/06 09:05:08;;;;;;;1999.90;999.90;;;;;;;;;;4954327;28;20209;-69
2023/11/06 09:07:53;;;;;;;1999.90;999.90;;;;;;;;;;4954009;28;20745;-69
2023/11/06 09:10:39;;;;;;;1999.90;999.90;;;;;;;;;;4950718;29;20611;-68
2023/11/06 09:13:23;;;;;;;1999.90;999.90;;;;;;;;;;4933448;29;20330;-70
2023/11/06 09:16:09;;;;;;;1999.90;999.90;;;;;;;;;;4934666;29;20319;-69
2023/11/06 09:18:55;;;;;;;1999.90;999.90;;;;;;;;;;4934783;29;20212;-70
2023/11/06 09:21:40;;;;;;;1999.90;999.90;;;;;;;;;;4928233;29;20305;-69
2023/11/06 09:24:28;;;;;;;1999.90;999.90;;;;;;;;;;4934594;29;20598;-70
2023/11/06 09:27:13;;;;;;;1999.90;999.90;;;;;;;;;;4934449;29;20240;-70
2023/11/06 09:29:58;;;;;;;1999.90;999.90;;;;;;;;;;4933454;29;20233;-69
2023/11/06 09:32:44;;;;;;;1999.90;999.90;;;;;;;;;;4936507;29;20217;-70
2023/11/06 09:35:30;;;;;;;1999.90;999.90;;;;;;;;;;4934322;29;20218;-69
2023/11/06 09:38:16;;;;;;;1999.90;999.90;;;;;;;;;;4934382;29;20206;-69
2023/11/06 09:41:01;;;;;;;1999.90;999.90;;;;;;;;;;4940271;29;20448;-69
2023/11/06 09:43:46;;;;;;;1999.90;999.90;;;;;;;;;;4947640;29;20588;-69
2023/11/06 09:46:31;;;;;;;1999.90;999.90;;;;;;;;;;4940990;29;20237;-69
2023/11/06 09:49:22;;;;;;;1999.90;999.90;;;;;;;;;;4934129;29;20379;-69
2023/11/06 09:52:09;;;;;;;1999.90;999.90;;;;;;;;;;4934320;29;20218;-70
2023/11/06 09:54:54;;;;;;;1999.90;999.90;;;;;;;;;;4929305;29;20222;-69
2023/11/06 09:57:39;;;;;;;1999.90;999.90;;;;;;;;;;4927477;29;20636;-69
2023/11/06 10:00:26;;;;;;;1999.90;999.90;;;;;;;;;;4934156;29;20291;-70
2023/11/06 10:03:11;;;;;;;1999.90;999.90;;;;;;;;;;4934096;29;20301;-70
2023/11/06 10:05:57;;;;;;;1999.90;999.90;;;;;;;;;;4934186;29;20219;-70
2023/11/06 10:08:44;;;;;;;1999.90;999.90;;;;;;;;;;4941128;28;20229;-70
2023/11/06 10:11:28;;;;;;;1999.90;999.90;;;;;;;;;;4956496;29;20231;-70
2023/11/06 10:14:14;;;;;;;1999.90;999.90;;;;;;;;;;4944029;29;20219;-70
2023/11/06 10:17:01;;;;;;;1999.90;999.90;;;;;;;;;;4940298;29;20255;-70
2023/11/06 10:19:58;;;;;;;1999.90;999.90;;;;;;;;;;4945492;29;20694;-71
2023/11/06 10:22:55;;;;;;;1999.90;999.90;;;;;;;;;;4936318;29;20273;-70
2023/11/06 10:25:42;;;;;;;1999.90;999.90;;;;;;;;;;4936587;29;20284;-70
2023/11/06 10:28:26;;;;;;;1999.90;999.90;;;;;;;;;;4937407;29;20247;-70
2023/11/06 10:31:11;;;;;;;1999.90;999.90;;;;;;;;;;4937709;29;20220;-70
2023/11/06 10:33:56;;;;;;;1999.90;999.90;;;;;;;;;;4940186;29;20213;-70
2023/11/06 10:36:41;;;;;;;1999.90;999.90;;;;;;;;;;4935985;29;20485;-69
2023/11/06 10:39:26;;;;;;;1999.90;999.90;;;;;;;;;;4937336;29;20958;-70
2023/11/06 10:42:12;;;;;;;1999.90;999.90;;;;;;;;;;4937643;29;20328;-69
2023/11/06 10:44:58;;;;;;;1999.90;999.90;;;;;;;;;;4937457;29;20312;-68
2023/11/06 10:47:44;;;;;;;1999.90;999.90;;;;;;;;;;4930474;29;20314;-69
2023/11/06 10:50:30;;;;;;;1999.90;999.90;;;;;;;;;;4937186;29;20233;-70
2023/11/06 10:53:18;;;;;;;1999.90;999.90;;;;;;;;;;4936764;29;20343;-70
2023/11/06 10:56:03;;;;;;;1999.90;999.90;;;;;;;;;;4937293;29;20230;-69
2023/11/06 10:58:51;;;;;;;1999.90;999.90;;;;;;;;;;4936811;29;20490;-69
2023/11/06 11:01:38;;;;;;;1999.90;999.90;;;;;;;;;;4936685;29;20272;-70
2023/11/06 11:04:23;;;;;;;1999.90;999.90;;;;;;;;;;4937004;29;20356;-70
2023/11/06 11:07:09;;;;;;;1999.90;999.90;;;;;;;;;;4936947;29;20252;-69
2023/11/06 11:09:55;;;;;;;1999.90;999.90;;;;;;;;;;4930654;29;20356;-71
2023/11/06 11:12:40;;;;;;;1999.90;999.90;;;;;;;;;;4940442;29;20336;-71
2023/11/06 11:15:27;;;;;;;1999.90;999.90;;;;;;;;;;4944339;29;20241;-70
2023/11/06 11:18:13;;;;;;;1999.90;999.90;;;;;;;;;;4933290;29;20241;-70
2023/11/06 11:21:01;;;;;;;1999.90;999.90;;;;;;;;;;4935436;29;20223;-69
2023/11/06 11:23:46;;;;;;;1999.90;999.90;;;;;;;;;;4936539;29;20219;-68
2023/11/06 11:26:51;;;;;;;1999.90;999.90;;;;;;;;;;4942965;29;20239;-68
2023/11/06 11:29:51;;;;;;;1999.90;999.90;;;;;;;;;;4948114;29;20231;-69
2023/11/06 11:32:47;;;;;;;1999.90;999.90;;;;;;;;;;4946164;29;20302;-69
2023/11/06 11:35:49;;;;;;;1999.90;999.90;;;;;;;;;;4947563;29;20413;-69
2023/11/06 11:38:35;;;;;;;1999.90;999.90;;;;;;;;;;4944862;29;20212;-69
2023/11/06 11:41:20;;;;;;;1999.90;999.90;;;;;;;;;;4936273;29;20216;-70
2023/11/06 11:44:08;;;;;;;1999.90;999.90;;;;;;;;;;4936276;29;20593;-69
2023/11/06 11:46:57;;;;;;;1999.90;999.90;;;;;;;;;;4942792;28;20295;-69
2023/11/06 11:49:47;;;;;;;1999.90;999.90;;;;;;;;;;4955166;28;20620;-69
2023/11/06 11:52:41;;;;;;;1999.90;999.90;;;;;;;;;;4955698;29;20224;-69
2023/11/06 11:55:31;;;;;;;1999.90;999.90;;;;;;;;;;4942154;28;20212;-68
2023/11/06 11:58:16;;;;;;;1999.90;999.90;;;;;;;;;;4936255;29;20225;-70
2023/11/06 12:01:01;;;;;;;1999.90;999.90;;;;;;;;;;4930499;29;20437;-69
2023/11/06 12:03:46;;;;;;;1999.90;999.90;;;;;;;;;;4933277;29;20216;-69
2023/11/06 12:06:33;;;;;;;1999.90;999.90;;;;;;;;;;4935788;29;20621;-69
2023/11/06 12:09:18;;;;;;;1999.90;999.90;;;;;;;;;;4935822;29;20252;-69
2023/11/06 12:12:03;;;;;;;1999.90;999.90;;;;;;;;;;4928900;29;20345;-68
2023/11/06 12:14:48;;;;;;;1999.90;999.90;;;;;;;;;;4941582;29;20321;-69
2023/11/06 12:17:34;;;;;;;1999.90;999.90;;;;;;;;;;4938842;28;20792;-69
2023/11/06 12:20:19;;;;;;;1999.90;999.90;;;;;;;;;;4941642;29;20210;-68
2023/11/06 12:23:07;;;;;;;1999.90;999.90;;;;;;;;;;4930254;29;20223;-69
2023/11/06 12:25:52;;;;;;;1999.90;999.90;;;;;;;;;;4935664;29;20701;-67
2023/11/06 12:28:42;;;;;;;1999.90;999.90;;;;;;;;;;4936375;29;20224;-67
2023/11/06 12:31:36;;;;;;;1999.90;999.90;;;;;;;;;;4937327;29;20238;-69
2023/11/06 12:34:21;;;;;;;1999.90;999.90;;;;;;;;;;4943418;28;20209;-69
2023/11/06 12:37:06;;;;;;;1999.90;999.90;;;;;;;;;;4935444;29;20231;-69
2023/11/06 12:39:52;;;;;;;1999.90;999.90;;;;;;;;;;4938157;29;20212;-68
2023/11/06 12:42:38;;;;;;;1999.90;999.90;;;;;;;;;;4935083;29;20224;-69
2023/11/06 12:45:31;;;;;;;1999.90;999.90;;;;;;;;;;4935290;29;20240;-69
2023/11/06 12:48:19;;;;;;;1999.90;999.90;;;;;;;;;;4935263;29;20291;-69
2023/11/06 12:51:09;;;;;;;1999.90;999.90;;;;;;;;;;4935197;29;20216;-69
2023/11/06 12:53:53;;;;;;;1999.90;999.90;;;;;;;;;;4927790;29;20429;-70
2023/11/06 12:56:39;;;;;;;1999.90;999.90;;;;;;;;;;4935023;29;20316;-69
2023/11/06 12:59:24;;;;;;;1999.90;999.90;;;;;;;;;;4935114;29;20215;-69
2023/11/06 13:02:10;;;;;;;1999.90;999.90;;;;;;;;;;4935034;29;20224;-69
2023/11/06 13:04:56;;;;;;;1999.90;999.90;;;;;;;;;;4939225;29;20214;-68
2023/11/06 13:07:44;;;;;;;1999.90;999.90;;;;;;;;;;4935924;29;20848;-69
2023/11/06 13:10:29;;;;;;;1999.90;999.90;;;;;;;;;;4934283;29;20232;-67
2023/11/06 13:13:15;;;;;;;1999.90;999.90;;;;;;;;;;4934926;29;20341;-69
2023/11/06 13:16:03;;;;;;;1999.90;999.90;;;;;;;;;;4934449;29;20794;-69
2023/11/06 13:18:48;;;;;;;1999.90;999.90;;;;;;;;;;4934809;29;20672;-69
2023/11/06 13:21:33;;;;;;;1999.90;999.90;;;;;;;;;;4934573;29;20757;-70
2023/11/06 13:24:19;;;;;;;1999.90;999.90;;;;;;;;;;4934518;29;20217;-69
2023/11/06 13:27:04;;;;;;;1999.90;999.90;;;;;;;;;;4934553;29;20244;-68
2023/11/06 13:29:51;;;;;;;1999.90;999.90;;;;;;;;;;4934289;29;20376;-69
2023/11/06 13:32:36;;;;;;;1999.90;999.90;;;;;;;;;;4934307;29;20224;-69
2023/11/06 13:35:21;;;;;;;1999.90;999.90;;;;;;;;;;4934684;29;20216;-69
2023/11/06 13:38:08;;;;;;;1999.90;999.90;;;;;;;;;;4934589;29;20291;-68
2023/11/06 13:40:53;;;;;;;1999.90;999.90;;;;;;;;;;4926582;29;20207;-69
2023/11/06 13:43:38;;;;;;;1999.90;999.90;;;;;;;;;;4933635;29;20584;-69
2023/11/06 13:46:24;;;;;;;1999.90;999.90;;;;;;;;;;4934883;29;20270;-68
2023/11/06 13:49:10;;;;;;;1999.90;999.90;;;;;;;;;;4934450;29;20228;-68
2023/11/06 13:51:55;;;;;;;1999.90;999.90;;;;;;;;;;4926748;29;20684;-68
2023/11/06 13:54:41;;;;;;;1999.90;999.90;;;;;;;;;;4935948;29;20273;-69
2023/11/06 13:57:26;;;;;;;1999.90;999.90;;;;;;;;;;4934082;29;20296;-69
2023/11/06 14:00:27;;;;;;;1999.90;999.90;;;;;;;;;;4934151;29;20287;-68
2023/11/06 14:03:15;;;;;;;1999.90;999.90;;;;;;;;;;4942432;29;20212;-68
2023/11/06 14:06:00;;;;;;;1999.90;999.90;;;;;;;;;;4934129;29;20207;-68
2023/11/06 14:08:45;;;;;;;1999.90;999.90;;;;;;;;;;4934517;29;20212;-68
2023/11/06 14:11:32;;;;;;;1999.90;999.90;;;;;;;;;;4934337;29;20232;-68
2023/11/06 14:14:17;;;;;;;1999.90;999.90;;;;;;;;;;4934394;29;20220;-68
2023/11/06 14:17:04;;;;;;;1999.90;999.90;;;;;;;;;;4934224;29;20243;-68
2023/11/06 14:19:50;;;;;;;1999.90;999.90;;;;;;;;;;4934222;29;20291;-69
2023/11/06 14:22:35;;;;;;;1999.90;999.90;;;;;;;;;;4934250;29;20212;-69
2023/11/06 14:25:21;;;;;;;1999.90;999.90;;;;;;;;;;4934377;29;20208;-68
2023/11/06 14:28:06;;;;;;;1999.90;999.90;;;;;;;;;;4934332;29;20355;-69
2023/11/06 14:30:52;;;;;;;1999.90;999.90;;;;;;;;;;4933796;29;20276;-69
2023/11/06 14:33:37;;;;;;;1999.90;999.90;;;;;;;;;;4934005;29;20494;-68
2023/11/06 14:36:23;;;;;;;1999.90;999.90;;;;;;;;;;4934236;29;20741;-67
2023/11/06 14:39:13;;;;;;;1999.90;999.90;;;;;;;;;;4934075;29;20275;-70
2023/11/06 14:41:58;;;;;;;1999.90;999.90;;;;;;;;;;4933991;29;20204;-69
2023/11/06 14:44:43;;;;;;;1999.90;999.90;;;;;;;;;;4934238;29;20267;-68
2023/11/06 14:47:28;;;;;;;1999.90;999.90;;;;;;;;;;4934147;29;20298;-68
2023/11/06 14:50:15;;;;;;;1999.90;999.90;;;;;;;;;;4933576;29;20268;-70
2023/11/06 14:53:02;;;;;;;1999.90;999.90;;;;;;;;;;4934133;29;20622;-67
2023/11/06 14:55:47;;;;;;;1999.90;999.90;;;;;;;;;;4935598;29;20212;-69
2023/11/06 14:58:33;;;;;;;1999.90;999.90;;;;;;;;;;4937513;29;20327;-69
2023/11/06 15:01:21;;;;;;;1999.90;999.90;;;;;;;;;;4941838;28;20211;-69
2023/11/06 15:04:06;;;;;;;1999.90;999.90;;;;;;;;;;4945473;28;20781;-69
2023/11/06 15:06:51;;;;;;;1999.90;999.90;;;;;;;;;;4942899;28;20242;-68
2023/11/06 15:09:40;;;;;;;1999.90;999.90;;;;;;;;;;4935612;29;20228;-68
2023/11/06 15:12:25;;;;;;;1999.90;999.90;;;;;;;;;;4936993;29;20209;-69
2023/11/06 15:15:15;;;;;;;1999.90;999.90;;;;;;;;;;4937181;29;20224;-68
2023/11/06 15:18:00;;;;;;;1999.90;999.90;;;;;;;;;;4938704;29;20238;-69
2023/11/06 15:20:45;;;;;;;1999.90;999.90;;;;;;;;;;4939249;29;20224;-68
2023/11/06 15:23:30;;;;;;;1999.90;999.90;;;;;;;;;;4939761;29;20216;-68
2023/11/06 15:26:18;;;;;;;1999.90;999.90;;;;;;;;;;4948004;28;20235;-69
2023/11/06 15:29:02;;;;;;;1999.90;999.90;;;;;;;;;;4936608;29;20224;-70
2023/11/06 15:31:48;;;;;;;1999.90;999.90;;;;;;;;;;4935132;29;20468;-69
2023/11/06 15:34:33;;;;;;;1999.90;999.90;;;;;;;;;;4936387;29;20298;-69
2023/11/06 15:37:17;;;;;;;1999.90;999.90;;;;;;;;;;4930518;29;20259;-68
2023/11/06 15:40:03;;;;;;;1999.90;999.90;;;;;;;;;;4936134;29;20690;-69
2023/11/06 15:42:50;;;;;;;1999.90;999.90;;;;;;;;;;4936238;29;20728;-69
2023/11/06 15:45:34;;;;;;;1999.90;999.90;;;;;;;;;;4936140;29;20211;-69
2023/11/06 15:48:19;;;;;;;1999.90;999.90;;;;;;;;;;4930643;29;20952;-68
2023/11/06 15:51:05;;;;;;;1999.90;999.90;;;;;;;;;;4935838;29;20320;-68
2023/11/06 15:53:53;;;;;;;1999.90;999.90;;;;;;;;;;4930908;29;20510;-69
2023/11/06 15:56:38;;;;;;;1999.90;999.90;;;;;;;;;;4932699;29;20233;-70
2023/11/06 15:59:24;;;;;;;1999.90;999.90;;;;;;;;;;4930385;29;20217;-71
2023/11/06 16:02:09;;;;;;;1999.90;999.90;;;;;;;;;;4936329;29;20202;-70
2023/11/06 16:04:54;;;;;;;1999.90;999.90;;;;;;;;;;4935894;29;20214;-69
2023/11/06 16:07:39;;;;;;;1999.90;999.90;;;;;;;;;;4935123;29;20644;-69
2023/11/06 16:10:25;;;;;;;1999.90;999.90;;;;;;;;;;4930200;29;20231;-68
2023/11/06 16:13:11;;;;;;;1999.90;999.90;;;;;;;;;;4935904;29;20691;-69
2023/11/06 16:15:58;;;;;;;1999.90;999.90;;;;;;;;;;4935559;29;20239;-70
2023/11/06 16:18:44;;;;;;;1999.90;999.90;;;;;;;;;;4935860;29;20814;-69
2023/11/06 16:21:29;;;;;;;1999.90;999.90;;;;;;;;;;4935651;29;20207;-69
2023/11/06 16:24:15;;;;;;;1999.90;999.90;;;;;;;;;;4935442;29;20211;-70
2023/11/06 16:27:00;;;;;;;1999.90;999.90;;;;;;;;;;4935514;29;20249;-69
2023/11/06 16:29:45;;;;;;;1999.90;999.90;;;;;;;;;;4935043;29;20217;-69
2023/11/06 16:32:32;;;;;;;1999.90;999.90;;;;;;;;;;4938676;29;20301;-69
2023/11/06 16:35:16;;;;;;;1999.90;999.90;;;;;;;;;;4943591;29;20329;-70
2023/11/06 16:38:02;;;;;;;1999.90;999.90;;;;;;;;;;4950199;28;20384;-70
2023/11/06 16:40:47;;;;;;;1999.90;999.90;;;;;;;;;;4934612;28;20582;-69
2023/11/06 16:43:32;;;;;;;1999.90;999.90;;;;;;;;;;4936612;29;20226;-68
2023/11/06 16:46:16;;;;;;;1999.90;999.90;;;;;;;;;;4936875;28;20241;-69
2023/11/06 16:49:03;;;;;;;1999.90;999.90;;;;;;;;;;4953522;29;20261;-68
2023/11/06 16:51:49;;;;;;;1999.90;999.90;;;;;;;;;;4954203;29;20443;-69
2023/11/06 16:54:34;;;;;;;1999.90;999.90;;;;;;;;;;4951490;29;20261;-70
2023/11/06 16:57:19;;;;;;;1999.90;999.90;;;;;;;;;;4927474;29;20722;-70
2023/11/06 17:00:07;;;;;;;1999.90;999.90;;;;;;;;;;4933626;29;20217;-69
2023/11/06 17:02:52;;;;;;;1999.90;999.90;;;;;;;;;;4928619;29;20707;-69
2023/11/06 17:05:38;;;;;;;1999.90;999.90;;;;;;;;;;4932565;29;20598;-69
2023/11/06 17:08:24;;;;;;;1999.90;999.90;;;;;;;;;;4933282;29;20709;-69
2023/11/06 17:11:09;;;;;;;1999.90;999.90;;;;;;;;;;4932150;29;20816;-69
2023/11/06 17:13:54;;;;;;;1999.90;999.90;;;;;;;;;;4934304;29;20810;-69
2023/11/06 17:16:39;;;;;;;1999.90;999.90;;;;;;;;;;4934495;29;20229;-69
2023/11/06 17:19:23;;;;;;;1999.90;999.90;;;;;;;;;;4928453;29;20216;-69
2023/11/06 17:22:10;;;;;;;1999.90;999.90;;;;;;;;;;4932384;29;20225;-69
2023/11/06 17:24:55;;;;;;;1999.90;999.90;;;;;;;;;;4934648;29;20205;-69
2023/11/06 17:27:41;;;;;;;1999.90;999.90;;;;;;;;;;4934238;29;20597;-68
2023/11/06 17:30:25;;;;;;;1999.90;999.90;;;;;;;;;;4939494;29;20228;-69
2023/11/06 17:33:10;;;;;;;1999.90;999.90;;;;;;;;;;4942834;29;20214;-70